Time;durP1;ratioP1;P1;durP2;ratioP2;P2;SDS_P1;SDS_P2;PMS_P1;PMS_P2;Temp;Humidity;BMP_temperature;BMP_pressure;BME280_temperature;BME280_humidity;BME280_pressure;Samples;Min_cycle;Max_cycle;Signal;HPM_P1;HPM_P2
2021/06/24 00:01:17;;;;;;;;;13.50;9.25;;;;;17.95;56.92;101809.44;4994853;28;46230;-78
2021/06/24 00:03:43;;;;;;;;;9.50;9.50;;;;;18.03;56.79;101803.56;4977346;28;45403;-78
2021/06/24 00:06:09;;;;;;;;;10.00;8.00;;;;;18.00;56.71;101807.00;4994341;28;45258;-77
2021/06/24 00:08:36;;;;;;;;;10.00;8.25;;;;;18.06;56.42;101808.91;4995539;27;45269;-78
2021/06/24 00:11:04;;;;;;;;;10.00;8.50;;;;;18.08;56.40;101807.22;4998778;28;46354;-78
2021/06/24 00:13:30;;;;;;;;;12.00;9.75;;;;;18.09;56.38;101802.03;4997047;28;45446;-78
2021/06/24 00:15:56;;;;;;;;;8.50;6.50;;;;;18.15;56.57;101816.13;4996444;27;45584;-78
2021/06/24 00:18:22;;;;;;;;;9.75;7.50;;;;;18.12;56.50;101810.81;4998176;28;45402;-78
2021/06/24 00:20:49;;;;;;;;;8.50;8.50;;;;;18.11;56.16;101815.16;4995454;28;46441;-78
2021/06/24 00:23:14;;;;;;;;;10.50;9.75;;;;;18.05;56.60;101808.00;4994752;27;45208;-78
2021/06/24 00:25:40;;;;;;;;;10.25;8.00;;;;;18.06;56.32;101814.16;4995102;28;45190;-78
2021/06/24 00:28:06;;;;;;;;;9.75;8.25;;;;;18.00;56.34;101812.22;4994552;28;45469;-78
2021/06/24 00:30:37;;;;;;;;;10.25;6.75;;;;;18.03;56.04;101809.69;4994758;28;46366;-78
2021/06/24 00:33:03;;;;;;;;;12.00;8.00;;;;;18.04;56.23;101808.84;4994654;28;45729;-78
2021/06/24 00:35:28;;;;;;;;;10.50;8.25;;;;;18.02;56.45;101799.16;4977702;28;45466;-78
2021/06/24 00:37:54;;;;;;;;;10.00;9.75;;;;;18.04;56.49;101806.22;4995082;27;45570;-78
2021/06/24 00:40:20;;;;;;;;;11.50;9.75;;;;;18.06;56.71;101815.03;4994506;27;46320;-77
2021/06/24 00:42:45;;;;;;;;;10.75;8.25;;;;;18.05;56.27;101810.63;4994254;27;45347;-77
2021/06/24 00:45:13;;;;;;;;;10.75;9.50;;;;;18.04;56.55;101806.22;4994558;27;45887;-77
2021/06/24 00:47:39;;;;;;;;;10.50;8.00;;;;;18.00;56.49;101804.38;4994883;28;45486;-77
2021/06/24 00:50:07;;;;;;;;;9.25;8.50;;;;;18.00;56.50;101806.09;4994174;27;45862;-77
2021/06/24 00:52:33;;;;;;;;;7.00;7.00;;;;;17.98;56.56;101805.19;4994554;28;45358;-78
2021/06/24 00:54:59;;;;;;;;;9.75;8.00;;;;;17.97;56.86;101803.41;4994871;28;45318;-77
2021/06/24 00:57:25;;;;;;;;;9.00;9.00;;;;;17.99;57.20;101810.44;4994798;27;45648;-80
2021/06/24 00:59:52;;;;;;;;;9.00;9.00;;;;;18.01;56.80;101803.53;4994327;28;45365;-79
2021/06/24 01:02:18;;;;;;;;;9.25;7.75;;;;;17.92;56.78;101798.84;4993816;28;45785;-80
2021/06/24 01:04:44;;;;;;;;;9.50;8.50;;;;;17.91;56.86;101794.47;4994452;28;45311;-78
2021/06/24 01:07:09;;;;;;;;;7.25;7.25;;;;;17.94;56.92;101794.56;4994163;28;45466;-78
2021/06/24 01:09:35;;;;;;;;;11.00;8.50;;;;;17.89;56.75;101787.41;4994191;28;45988;-78
2021/06/24 01:12:03;;;;;;;;;9.00;9.00;;;;;17.81;56.92;101794.16;4994220;28;45346;-80
2021/06/24 01:14:29;;;;;;;;;6.25;6.00;;;;;17.85;57.15;101789.03;4994334;27;45405;-79
2021/06/24 01:16:55;;;;;;;;;11.75;9.50;;;;;17.88;57.02;101790.88;4993793;28;45255;-79
2021/06/24 01:19:21;;;;;;;;;9.75;6.00;;;;;17.91;56.86;101790.97;4993927;28;46202;-79
2021/06/24 01:21:47;;;;;;;;;8.50;7.50;;;;;17.89;57.06;101790.91;4976542;28;45298;-78
2021/06/24 01:24:14;;;;;;;;;10.25;9.50;;;;;17.89;56.72;101783.03;4994070;28;45479;-79
2021/06/24 01:26:41;;;;;;;;;11.00;8.25;;;;;17.91;56.64;101794.47;4994312;28;45557;-78
2021/06/24 01:29:08;;;;;;;;;10.00;8.00;;;;;17.93;56.59;101776.16;4993923;28;45322;-78
2021/06/24 01:31:33;;;;;;;;;7.75;6.50;;;;;17.95;56.70;101790.19;4994066;28;45713;-77
2021/06/24 01:34:00;;;;;;;;;8.75;8.25;;;;;17.97;56.33;101785.94;4994415;28;45339;-77
2021/06/24 01:36:27;;;;;;;;;8.00;7.50;;;;;17.90;56.50;101790.06;4994461;27;45256;-77
2021/06/24 01:38:53;;;;;;;;;10.25;9.50;;;;;17.87;56.72;101781.22;4994217;28;45397;-77
2021/06/24 01:41:19;;;;;;;;;6.25;6.25;;;;;17.87;56.71;101771.63;4993170;27;45434;-77
2021/06/24 01:43:46;;;;;;;;;8.50;8.25;;;;;17.91;56.49;101768.25;4994305;28;45378;-78
2021/06/24 01:46:12;;;;;;;;;9.50;9.50;;;;;17.87;56.59;101774.25;4994084;27;45510;-77
2021/06/24 01:48:39;;;;;;;;;9.75;9.50;;;;;17.83;56.72;101779.34;4993839;28;45437;-78
2021/06/24 01:51:06;;;;;;;;;11.00;7.75;;;;;17.82;56.53;101775.84;4993251;27;45308;-78
2021/06/24 01:53:31;;;;;;;;;8.00;7.50;;;;;17.85;56.46;101783.81;4994073;28;45255;-77
2021/06/24 01:55:57;;;;;;;;;7.50;6.75;;;;;17.83;56.37;101771.47;4994837;28;45602;-77
2021/06/24 01:58:26;;;;;;;;;9.75;7.50;;;;;17.86;56.47;101767.25;4993683;28;45977;-78
2021/06/24 02:00:53;;;;;;;;;7.50;7.50;;;;;17.83;56.31;101761.91;4993252;28;45963;-78
2021/06/24 02:03:20;;;;;;;;;9.50;8.25;;;;;17.76;56.40;101767.81;4993633;27;45323;-78
2021/06/24 02:05:49;;;;;;;;;8.25;8.00;;;;;17.78;56.31;101760.88;4994051;28;45513;-78
2021/06/24 02:08:20;;;;;;;;;7.50;7.50;;;;;17.77;56.21;101770.47;4993395;28;45549;-78
2021/06/24 02:10:46;;;;;;;;;6.75;6.75;;;;;17.63;56.53;101764.81;4993629;28;45791;-78
2021/06/24 02:13:12;;;;;;;;;9.00;7.50;;;;;17.50;56.61;101765.25;4993241;28;45268;-78
2021/06/24 02:15:39;;;;;;;;;9.75;7.75;;;;;17.41;56.43;101751.88;4993717;27;45459;-78
2021/06/24 02:18:05;;;;;;;;;8.00;6.75;;;;;17.30;56.95;101748.91;4993309;28;46426;-78
2021/06/24 02:20:31;;;;;;;;;10.00;9.75;;;;;17.29;57.07;101762.84;4992926;27;45469;-78
2021/06/24 02:22:57;;;;;;;;;7.25;7.25;;;;;17.21;57.63;101760.00;4993932;27;45316;-78
2021/06/24 02:25:23;;;;;;;;;6.50;6.50;;;;;17.20;57.33;101741.59;4975860;28;45576;-77
2021/06/24 02:27:49;;;;;;;;;8.00;7.00;;;;;17.22;57.35;101739.94;4992919;27;45269;-78
2021/06/24 02:30:15;;;;;;;;;9.50;9.00;;;;;17.24;57.25;101733.03;4993164;28;45478;-77
2021/06/24 02:32:41;;;;;;;;;9.25;7.50;;;;;17.24;57.21;101727.78;4975617;28;45213;-78
2021/06/24 02:35:12;;;;;;;;;8.75;7.00;;;;;17.23;57.44;101726.88;4992665;28;45411;-77
2021/06/24 02:37:38;;;;;;;;;10.00;8.75;;;;;17.28;57.49;101733.16;4993207;28;46189;-78
2021/06/24 02:40:05;;;;;;;;;7.50;5.75;;;;;17.32;57.37;101728.91;4992494;28;45347;-79
2021/06/24 02:42:31;;;;;;;;;8.50;8.50;;;;;17.28;57.13;101722.69;4993022;27;45225;-78
2021/06/24 02:44:57;;;;;;;;;10.00;8.00;;;;;17.28;57.32;101722.69;4993657;28;45556;-78
2021/06/24 02:47:22;;;;;;;;;9.00;9.00;;;;;17.20;57.16;101720.66;4992693;28;45308;-77
2021/06/24 02:49:48;;;;;;;;;11.00;7.50;;;;;17.16;57.58;101724.91;4974966;28;45454;-78
2021/06/24 02:52:14;;;;;;;;;9.50;8.50;;;;;17.18;57.51;101729.34;4992898;28;45457;-78
2021/06/24 02:54:39;;;;;;;;;11.50;8.75;;;;;17.15;57.45;101726.66;4993422;28;45561;-78
2021/06/24 02:57:05;;;;;;;;;8.75;7.00;;;;;17.18;57.16;101737.19;4992561;28;45852;-78
2021/06/24 02:59:31;;;;;;;;;10.00;7.25;;;;;17.18;57.27;101731.97;4992898;28;45797;-78
2021/06/24 03:01:56;;;;;;;;;8.75;7.75;;;;;17.14;56.91;101727.50;4993190;27;45311;-78
2021/06/24 03:04:22;;;;;;;;;9.25;8.00;;;;;17.10;57.49;101732.59;4992489;28;45359;-78
2021/06/24 03:06:50;;;;;;;;;8.75;7.75;;;;;17.01;57.86;101736.66;4992628;28;45400;-78
2021/06/24 03:09:16;;;;;;;;;10.50;9.50;;;;;16.89;57.93;101727.47;4992092;28;45682;-78
2021/06/24 03:11:42;;;;;;;;;9.50;7.25;;;;;16.93;58.18;101730.25;4992891;28;45254;-78
2021/06/24 03:14:08;;;;;;;;;7.25;7.00;;;;;16.94;57.98;101733.81;4974349;28;45584;-78
2021/06/24 03:16:33;;;;;;;;;7.00;7.00;;;;;16.88;58.19;101729.22;4991685;28;45448;-79
2021/06/24 03:18:59;;;;;;;;;7.00;7.00;;;;;16.84;58.41;101728.22;4992327;28;45402;-78
2021/06/24 03:21:25;;;;;;;;;7.50;7.00;;;;;16.90;57.98;101724.91;4993070;28;45401;-78
2021/06/24 03:23:51;;;;;;;;;9.25;9.00;;;;;16.98;57.98;101728.72;4992875;28;45594;-78
2021/06/24 03:26:17;;;;;;;;;12.00;8.75;;;;;16.94;58.22;101728.56;4992179;27;46046;-78
2021/06/24 03:28:43;;;;;;;;;8.50;8.50;;;;;16.92;58.37;101733.69;4992094;28;45414;-78
2021/06/24 03:31:10;;;;;;;;;8.00;8.00;;;;;17.01;58.47;101741.00;4992378;28;45238;-78
2021/06/24 03:33:36;;;;;;;;;7.50;7.50;;;;;17.01;58.17;101728.78;4992687;27;45519;-78
2021/06/24 03:36:02;;;;;;;;;6.50;5.00;;;;;17.05;57.79;101726.28;4974367;28;46162;-78
2021/06/24 03:38:27;;;;;;;;;8.00;6.00;;;;;17.09;57.75;101736.91;4992636;28;45384;-78
2021/06/24 03:40:53;;;;;;;;;6.75;6.00;;;;;17.12;58.03;101737.03;4995046;28;45401;-78
2021/06/24 03:43:19;;;;;;;;;7.75;6.00;;;;;17.12;57.97;101741.34;4995381;28;45433;-79
2021/06/24 03:45:44;;;;;;;;;9.50;9.50;;;;;17.13;57.88;101738.81;4995425;28;45419;-77
2021/06/24 03:48:10;;;;;;;;;9.50;9.00;;;;;17.03;57.94;101731.50;4976857;28;45593;-78
2021/06/24 03:50:36;;;;;;;;;7.75;7.75;;;;;17.06;57.61;101738.53;4995386;27;45446;-78
2021/06/24 03:53:03;;;;;;;;;7.50;7.50;;;;;16.97;57.68;101741.72;4995645;27;45488;-79
2021/06/24 03:55:43;;;;;;;;;9.00;7.25;;;;;16.95;57.75;101739.06;4995467;27;46142;-78
2021/06/24 03:58:09;;;;;;;;;10.25;9.00;;;;;16.82;57.65;101736.84;4994820;28;45428;-78
2021/06/24 04:00:38;;;;;;;;;6.75;6.00;;;;;16.81;57.54;101742.91;4996478;27;45382;-78
2021/06/24 04:03:04;;;;;;;;;9.00;9.00;;;;;16.80;58.05;101741.13;4994919;27;45223;-81
2021/06/24 04:05:31;;;;;;;;;9.75;8.25;;;;;16.75;57.97;101740.09;4995307;28;45430;-80
2021/06/24 04:08:01;;;;;;;;;8.00;7.00;;;;;16.68;58.17;101736.38;4995267;27;45786;-80
2021/06/24 04:10:28;;;;;;;;;10.75;8.75;;;;;16.58;58.22;101729.06;4995284;27;45461;-81
2021/06/24 04:12:54;;;;;;;;;10.50;9.00;;;;;16.53;58.14;101734.13;4995601;28;45386;-81
2021/06/24 04:15:24;;;;;;;;;9.50;8.00;;;;;16.55;57.70;101750.75;4976867;28;47642;-79
2021/06/24 04:17:51;;;;;;;;;9.75;8.50;;;;;16.58;58.13;101744.75;4976927;28;45425;-79
2021/06/24 04:20:17;;;;;;;;;10.25;8.50;;;;;16.48;58.29;101740.91;4994695;28;45431;-80
2021/06/24 04:22:43;;;;;;;;;9.25;7.75;;;;;16.40;58.20;101751.97;4995178;28;45600;-81
2021/06/24 04:25:13;;;;;;;;;10.75;10.75;;;;;16.35;58.18;101744.81;4977003;28;46832;-81
2021/06/24 04:27:40;;;;;;;;;10.50;10.25;;;;;16.37;58.73;101746.63;4995414;28;45411;-81
2021/06/24 04:30:07;;;;;;;;;10.00;9.75;;;;;16.34;58.35;101743.03;4977510;28;45390;-81
2021/06/24 04:32:33;;;;;;;;;9.00;8.00;;;;;16.37;58.47;101745.75;4978913;28;45477;-81
2021/06/24 04:34:58;;;;;;;;;9.25;8.00;;;;;16.34;58.68;101756.09;4977744;28;47705;-80
2021/06/24 04:37:24;;;;;;;;;8.25;8.25;;;;;16.38;58.30;101753.63;4995227;28;45363;-80
2021/06/24 04:39:49;;;;;;;;;9.25;8.25;;;;;16.39;58.14;101754.53;4995782;28;45471;-82
2021/06/24 04:42:15;;;;;;;;;8.50;8.50;;;;;16.43;58.54;101759.03;4995896;28;45450;-82
2021/06/24 04:44:41;;;;;;;;;10.25;9.00;;;;;16.45;58.86;101761.72;4995020;27;46211;-80
2021/06/24 04:47:08;;;;;;;;;7.50;7.50;;;;;16.44;58.33;101758.19;4994491;28;45292;-80
2021/06/24 04:49:34;;;;;;;;;8.25;8.25;;;;;16.48;58.64;101761.81;4993990;27;45476;-78
2021/06/24 04:52:00;;;;;;;;;9.25;8.25;;;;;16.38;58.70;101760.59;4977073;28;45770;-77
2021/06/24 04:54:25;;;;;;;;;9.75;9.75;;;;;16.37;58.66;101758.81;4994323;28;45548;-79
2021/06/24 04:56:51;;;;;;;;;11.50;9.50;;;;;16.32;58.83;101760.38;4994191;28;45425;-78
2021/06/24 04:59:16;;;;;;;;;11.00;8.50;;;;;16.28;58.94;101767.22;4994284;27;45415;-79
2021/06/24 05:01:42;;;;;;;;;8.75;8.75;;;;;16.31;58.92;101766.41;4994784;27;45525;-78
2021/06/24 05:04:08;;;;;;;;;8.50;8.50;;;;;16.28;59.11;101761.97;4993857;27;45910;-78
2021/06/24 05:06:34;;;;;;;;;8.50;8.00;;;;;16.39;58.85;101765.00;4993982;28;45262;-78
2021/06/24 05:09:00;;;;;;;;;13.25;9.25;;;;;16.38;58.96;101761.47;4976405;28;45382;-78
2021/06/24 05:11:26;;;;;;;;;9.75;9.75;;;;;16.36;58.38;101764.88;4996083;27;45442;-81
2021/06/24 05:13:52;;;;;;;;;11.00;7.75;;;;;16.30;59.07;101764.66;4995980;28;45430;-81
2021/06/24 05:16:17;;;;;;;;;11.25;10.00;;;;;16.27;58.58;101761.94;4994974;28;45440;-84
2021/06/24 05:18:43;;;;;;;;;8.25;8.25;;;;;16.28;58.54;101764.59;5000354;28;45566;-80
2021/06/24 05:21:09;;;;;;;;;12.00;9.75;;;;;16.33;58.48;101765.66;4994664;27;45514;-82
2021/06/24 05:23:38;;;;;;;;;9.50;9.50;;;;;16.42;58.52;101758.97;4994654;27;46525;-83
2021/06/24 05:26:04;;;;;;;;;8.75;8.75;;;;;16.39;58.38;101772.84;4976768;28;45775;-81
2021/06/24 05:28:30;;;;;;;;;10.25;10.25;;;;;16.39;58.47;101765.88;4994800;28;45513;-85
2021/06/24 05:30:56;;;;;;;;;8.25;8.25;;;;;16.39;58.37;101768.50;4976995;28;45272;-86
2021/06/24 05:33:22;;;;;;;;;11.25;11.25;;;;;16.36;58.65;101764.88;4993828;28;46464;-83
2021/06/24 05:35:48;;;;;;;;;10.25;9.00;;;;;16.34;58.53;101758.69;4979113;28;45482;-86
2021/06/24 05:38:16;;;;;;;;;11.50;10.00;;;;;16.38;58.19;101758.88;4978550;28;45529;-87
2021/06/24 05:40:44;;;;;;;;;8.50;8.50;;;;;16.44;58.43;101755.59;4993113;28;45478;-87
2021/06/24 05:43:10;;;;;;;;;9.50;8.00;;;;;16.38;58.61;101756.25;4994768;28;45340;-83
2021/06/24 05:45:35;;;;;;;;;12.50;10.75;;;;;16.36;58.51;101760.53;4994466;27;45411;-87
2021/06/24 05:48:01;;;;;;;;;10.50;8.75;;;;;16.32;58.69;101758.66;5000487;28;45245;-80
2021/06/24 05:50:27;;;;;;;;;8.75;8.75;;;;;16.17;58.73;101764.22;4998997;28;45641;-80
2021/06/24 05:52:54;;;;;;;;;10.00;7.50;;;;;16.13;59.01;101766.66;4996930;28;45786;-80
2021/06/24 05:55:47;;;;;;;;;9.75;9.00;;;;;16.16;58.76;101764.13;4994524;27;45549;-83
2021/06/24 05:58:11;;;;;;;;;11.00;10.25;;;;;16.14;58.79;101771.94;4994234;28;45343;-78
2021/06/24 06:00:37;;;;;;;;;12.00;9.00;;;;;16.18;58.74;101763.38;4993036;28;45611;-79
2021/06/24 06:03:03;;;;;;;;;9.50;9.00;;;;;16.24;58.56;101779.28;4992275;28;45414;-78
2021/06/24 06:05:28;;;;;;;;;10.00;10.00;;;;;16.18;58.90;101771.22;4991495;28;45482;-78
2021/06/24 06:07:54;;;;;;;;;8.50;8.50;;;;;16.18;58.42;101770.31;4993351;28;45418;-80
2021/06/24 06:10:19;;;;;;;;;9.00;8.00;;;;;16.20;58.48;101779.09;4993095;28;45437;-79
2021/06/24 06:12:45;;;;;;;;;13.00;11.00;;;;;16.23;58.52;101779.22;4993146;28;45418;-77
2021/06/24 06:15:11;;;;;;;;;12.00;10.25;;;;;16.25;58.81;101782.78;4992905;28;45598;-79
2021/06/24 06:17:39;;;;;;;;;10.25;9.00;;;;;16.28;58.53;101782.00;4994274;28;45381;-80
2021/06/24 06:20:05;;;;;;;;;10.50;8.25;;;;;16.28;58.96;101784.63;4994026;28;45411;-81
2021/06/24 06:22:31;;;;;;;;;9.75;9.75;;;;;16.29;58.55;101782.06;4993156;28;45808;-78
2021/06/24 06:24:57;;;;;;;;;10.75;10.00;;;;;16.36;58.74;101780.56;4976189;28;45345;-78
2021/06/24 06:27:22;;;;;;;;;10.00;8.50;;;;;16.38;58.60;101785.00;4993075;28;45354;-78
2021/06/24 06:29:48;;;;;;;;;8.75;8.75;;;;;16.49;58.14;101784.50;4993749;28;45567;-78
2021/06/24 06:32:13;;;;;;;;;12.75;12.00;;;;;16.58;58.08;101789.19;4975605;28;45725;-79
2021/06/24 06:34:39;;;;;;;;;10.00;8.50;;;;;16.57;58.15;101788.31;4976019;28;45890;-79
2021/06/24 06:37:05;;;;;;;;;9.00;7.50;;;;;16.65;57.73;101783.31;4992995;27;45426;-76
2021/06/24 06:39:30;;;;;;;;;12.25;12.25;;;;;16.65;57.81;101792.06;4994200;28;45538;-77
2021/06/24 06:41:56;;;;;;;;;11.00;11.00;;;;;16.62;57.99;101793.69;4994368;28;45785;-78
2021/06/24 06:44:21;;;;;;;;;10.25;10.25;;;;;16.53;57.82;101796.88;4975936;28;45473;-80
2021/06/24 06:46:47;;;;;;;;;10.50;8.75;;;;;16.51;58.23;101798.53;4992459;28;45305;-79
2021/06/24 06:49:13;;;;;;;;;11.25;10.00;;;;;16.55;57.79;101797.81;4992575;28;45386;-82
2021/06/24 06:51:38;;;;;;;;;10.25;10.00;;;;;16.51;57.92;101794.22;4992524;28;46232;-79
2021/06/24 06:54:04;;;;;;;;;13.50;12.25;;;;;16.38;58.24;101792.84;4992164;28;45267;-76
2021/06/24 06:56:30;;;;;;;;;13.00;12.25;;;;;16.44;58.16;101799.16;4973992;28;45337;-75
2021/06/24 06:58:56;;;;;;;;;13.50;11.50;;;;;16.45;58.27;101800.94;4992707;27;45353;-79
2021/06/24 07:01:21;;;;;;;;;12.00;10.00;;;;;16.45;58.48;101793.09;4992172;27;46540;-74
2021/06/24 07:03:47;;;;;;;;;11.75;10.75;;;;;16.51;58.51;101799.44;4991989;28;45292;-76
2021/06/24 07:06:15;;;;;;;;;12.75;11.00;;;;;16.60;58.05;101798.84;4974860;28;45205;-76
2021/06/24 07:08:40;;;;;;;;;10.75;10.75;;;;;16.64;58.34;101799.84;4992937;27;45477;-81
2021/06/24 07:11:08;;;;;;;;;10.75;9.50;;;;;16.71;57.80;101804.47;4992320;28;45412;-75
2021/06/24 07:13:35;;;;;;;;;11.75;10.00;;;;;16.78;57.84;101800.34;4992630;28;45353;-74
2021/06/24 07:16:01;;;;;;;;;11.75;10.00;;;;;16.80;57.75;101801.28;4994032;27;45218;-79
2021/06/24 07:18:27;;;;;;;;;12.00;9.50;;;;;16.79;57.68;101799.53;4998584;27;45242;-78
2021/06/24 07:20:54;;;;;;;;;10.50;9.50;;;;;16.77;57.40;101809.91;4996450;27;45328;-82
2021/06/24 07:23:20;;;;;;;;;11.00;9.00;;;;;16.79;57.62;101803.03;4996295;27;45784;-79
2021/06/24 07:25:46;;;;;;;;;12.25;9.50;;;;;16.81;57.31;101793.50;4996316;27;45461;-77
2021/06/24 07:28:11;;;;;;;;;11.75;10.75;;;;;16.91;57.74;101796.44;4995052;28;45264;-77
2021/06/24 07:30:38;;;;;;;;;11.00;11.00;;;;;16.98;57.26;101794.13;4992785;27;45544;-74
2021/06/24 07:33:04;;;;;;;;;10.75;10.75;;;;;17.04;57.47;101797.78;4996678;28;45596;-77
2021/06/24 07:35:30;;;;;;;;;12.50;9.50;;;;;17.07;57.37;101805.72;4995182;27;45322;-75
2021/06/24 07:37:55;;;;;;;;;9.00;9.00;;;;;16.98;57.36;101801.06;4995184;28;45515;-77
2021/06/24 07:40:21;;;;;;;;;9.50;7.50;;;;;17.01;57.64;101803.78;4994823;28;45361;-77
2021/06/24 07:42:47;;;;;;;;;12.25;9.00;;;;;17.05;57.14;101808.31;4992630;28;45687;-76
2021/06/24 07:45:13;;;;;;;;;11.50;8.75;;;;;16.99;57.18;101797.63;4993760;28;45434;-78
2021/06/24 07:47:39;;;;;;;;;12.00;10.00;;;;;16.90;57.35;101802.50;4992143;28;45511;-77
2021/06/24 07:50:06;;;;;;;;;8.00;8.00;;;;;16.84;57.31;101804.09;4993694;28;45810;-77
2021/06/24 07:52:31;;;;;;;;;11.25;11.25;;;;;16.90;57.38;101798.16;4994360;28;45881;-76
2021/06/24 07:54:57;;;;;;;;;14.75;10.25;;;;;16.98;57.31;101807.19;4995393;28;45407;-76
2021/06/24 07:57:23;;;;;;;;;16.00;13.50;;;;;17.03;57.13;101804.75;4995336;27;45298;-77
2021/06/24 07:59:49;;;;;;;;;10.25;8.00;;;;;17.10;57.17;101805.84;4997296;28;45586;-77
2021/06/24 08:02:14;;;;;;;;;9.00;9.00;;;;;17.16;57.08;101804.31;4996498;27;45308;-76
2021/06/24 08:04:40;;;;;;;;;9.00;8.00;;;;;17.15;56.63;101802.53;4979860;28;45287;-77
2021/06/24 08:07:06;;;;;;;;;9.00;9.00;;;;;17.20;56.98;101802.69;4982751;28;45558;-78
2021/06/24 08:09:31;;;;;;;;;11.00;11.00;;;;;17.26;56.58;101810.75;5005550;27;45509;-77
2021/06/24 08:11:57;;;;;;;;;13.25;10.25;;;;;17.27;56.38;101804.66;4995859;28;45326;-76
2021/06/24 08:14:23;;;;;;;;;9.50;9.50;;;;;17.32;56.39;101805.72;4993639;28;45464;-77
2021/06/24 08:16:50;;;;;;;;;14.00;11.75;;;;;17.33;56.56;101798.75;4976638;28;45631;-76
2021/06/24 08:19:15;;;;;;;;;10.00;8.00;;;;;17.35;56.60;101806.63;4975633;28;46333;-78
2021/06/24 08:21:41;;;;;;;;;11.00;11.00;;;;;17.38;56.37;101806.75;4993845;27;45826;-79
2021/06/24 08:24:07;;;;;;;;;12.00;11.25;;;;;17.38;56.34;101806.75;4993616;27;45417;-77
2021/06/24 08:26:32;;;;;;;;;13.75;9.00;;;;;17.41;56.02;101804.25;4976113;28;45702;-77
2021/06/24 08:28:58;;;;;;;;;10.25;10.00;;;;;17.51;56.18;101808.03;4993948;27;45478;-77
2021/06/24 08:31:24;;;;;;;;;8.75;8.50;;;;;17.58;55.84;101808.28;4993532;28;45343;-76
2021/06/24 08:33:50;;;;;;;;;12.50;11.00;;;;;17.68;55.43;101808.56;4993820;28;45320;-76
2021/06/24 08:36:16;;;;;;;;;12.75;10.25;;;;;17.69;55.44;101799.88;4993881;28;45518;-78
2021/06/24 08:38:42;;;;;;;;;10.00;9.75;;;;;17.83;55.35;101809.06;4993836;28;45543;-77
2021/06/24 08:41:08;;;;;;;;;11.75;10.50;;;;;17.96;55.03;101818.19;4993657;28;45308;-78
2021/06/24 08:43:34;;;;;;;;;12.00;9.25;;;;;18.10;54.90;101805.53;4994145;28;45479;-77
2021/06/24 08:46:02;;;;;;;;;13.50;11.50;;;;;18.20;54.46;101807.56;4994357;27;45839;-78
2021/06/24 08:48:33;;;;;;;;;19.50;14.75;;;;;18.29;54.03;101812.19;4993748;28;46540;-78
2021/06/24 08:50:59;;;;;;;;;13.25;13.25;;;;;18.38;54.00;101807.22;4993993;28;45476;-77
2021/06/24 08:53:26;;;;;;;;;10.00;10.00;;;;;18.50;53.97;101806.69;4976163;28;45578;-77
2021/06/24 08:55:55;;;;;;;;;10.75;10.75;;;;;18.52;53.67;101807.59;4976147;28;45497;-77
2021/06/24 08:58:21;;;;;;;;;14.75;13.00;;;;;18.61;53.47;101808.72;4975453;28;45438;-77
2021/06/24 09:00:48;;;;;;;;;14.50;13.50;;;;;18.60;53.45;101804.31;4993495;28;45326;-78
2021/06/24 09:03:23;;;;;;;;;13.50;11.00;;;;;18.53;53.15;101798.00;4993330;28;45341;-78
2021/06/24 09:06:04;;;;;;;;;14.25;10.50;;;;;18.55;53.35;101804.19;4993330;28;45344;-78
2021/06/24 09:08:36;;;;;;;;;15.75;13.50;;;;;18.63;53.04;101807.91;4993363;28;45447;-76
2021/06/24 09:11:26;;;;;;;;;12.75;12.75;;;;;18.70;53.05;101803.72;4993083;27;45485;-77
2021/06/24 09:14:15;;;;;;;;;18.00;12.25;;;;;18.86;53.03;101810.28;4993013;28;45335;-78
2021/06/24 09:16:42;;;;;;;;;11.50;11.25;;;;;18.83;52.78;101811.09;4993461;28;45401;-77
2021/06/24 09:19:21;;;;;;;;;12.75;11.50;;;;;18.98;52.75;101814.97;4992838;28;45697;-76
2021/06/24 09:21:56;;;;;;;;;10.25;10.25;;;;;19.09;52.71;101810.91;4993147;28;45195;-76
2021/06/24 09:24:25;;;;;;;;;11.75;10.75;;;;;19.15;51.91;101812.78;4993173;28;45235;-77
2021/06/24 09:26:51;;;;;;;;;10.75;9.50;;;;;19.27;51.85;101813.09;4975026;28;45495;-76
2021/06/24 09:29:18;;;;;;;;;12.75;10.75;;;;;19.37;51.51;101800.19;4992931;28;46239;-78
2021/06/24 09:31:47;;;;;;;;;10.00;8.75;;;;;19.32;51.57;101811.50;4992894;28;45309;-77
2021/06/24 09:34:13;;;;;;;;;13.25;12.25;;;;;19.36;51.03;101806.28;4992945;27;45186;-78
2021/06/24 09:36:44;;;;;;;;;12.25;12.25;;;;;19.31;51.46;101809.72;4992722;28;45472;-77
2021/06/24 09:39:24;;;;;;;;;13.25;10.75;;;;;19.30;51.33;101804.41;4992117;28;46137;-78
2021/06/24 09:42:16;;;;;;;;;11.75;11.25;;;;;19.34;51.52;101809.75;4992953;28;45442;-77
2021/06/24 09:44:48;;;;;;;;;10.25;9.75;;;;;19.48;50.95;101811.84;4988323;28;45583;-78
2021/06/24 09:47:18;;;;;;;;;11.00;11.00;;;;;19.51;51.10;101814.56;4992985;27;45434;-78
2021/06/24 09:49:55;;;;;;;;;13.25;12.00;;;;;19.61;51.16;101820.91;4975181;28;47423;-77
2021/06/24 09:52:21;;;;;;;;;11.25;11.25;;;;;19.57;50.83;101821.69;4992589;28;45355;-78
2021/06/24 09:54:50;;;;;;;;;9.25;7.50;;;;;19.54;50.33;101824.25;4992421;28;45378;-78
2021/06/24 09:57:24;;;;;;;;;11.25;8.00;;;;;19.49;50.18;101830.25;4992944;27;45531;-77
2021/06/24 09:59:50;;;;;;;;;10.75;10.50;;;;;19.38;49.73;101826.50;4992633;28;46204;-79
2021/06/24 10:02:18;;;;;;;;;9.00;7.25;;;;;19.32;50.12;101831.59;4992573;28;45682;-77
2021/06/24 10:04:46;;;;;;;;;13.75;8.50;;;;;19.38;49.82;101831.75;4992756;28;45497;-77
2021/06/24 10:07:14;;;;;;;;;9.25;9.00;;;;;19.37;49.62;101835.25;4975207;28;45361;-78
2021/06/24 10:09:41;;;;;;;;;9.50;8.25;;;;;19.45;50.01;101833.69;4992678;28;45312;-78
2021/06/24 10:12:10;;;;;;;;;9.50;9.25;;;;;19.47;49.46;101833.72;4992738;28;45345;-78
2021/06/24 10:14:37;;;;;;;;;10.25;8.00;;;;;19.48;49.63;101833.75;4992537;28;45484;-79
2021/06/24 10:17:04;;;;;;;;;10.75;10.75;;;;;19.54;49.88;101832.13;4992754;28;45574;-78
2021/06/24 10:19:35;;;;;;;;;7.25;6.75;;;;;19.56;49.58;101825.16;4992286;27;46206;-77
2021/06/24 10:22:10;;;;;;;;;7.75;6.50;;;;;19.63;48.92;101821.81;4992534;28;46038;-79
2021/06/24 10:24:41;;;;;;;;;9.25;9.25;;;;;19.65;48.76;101828.88;4992967;28;45410;-77
2021/06/24 10:27:09;;;;;;;;;11.00;9.50;;;;;19.71;49.07;101833.41;4992717;28;45372;-78
2021/06/24 10:29:50;;;;;;;;;10.50;10.50;;;;;19.71;48.42;101833.41;4974819;28;45385;-77
2021/06/24 10:32:30;;;;;;;;;10.00;10.00;;;;;19.74;48.25;101833.47;4992266;28;45194;-78
2021/06/24 10:34:58;;;;;;;;;12.50;9.75;;;;;19.87;48.44;101832.03;4993070;28;45385;-77
2021/06/24 10:37:27;;;;;;;;;9.75;8.50;;;;;20.01;47.97;101831.47;4992240;28;45365;-78
2021/06/24 10:39:57;;;;;;;;;10.00;8.50;;;;;20.16;47.96;101823.94;4992447;28;45417;-78
2021/06/24 10:42:24;;;;;;;;;11.50;11.50;;;;;20.27;48.20;101826.78;4974135;28;45451;-79
2021/06/24 10:44:52;;;;;;;;;12.75;10.50;;;;;20.24;47.66;101827.59;4992414;28;45512;-82
2021/06/24 10:47:35;;;;;;;;;9.25;9.25;;;;;20.31;47.71;101826.00;4992652;28;45451;-78
2021/06/24 10:50:37;;;;;;;;;15.50;12.50;;;;;20.23;47.48;101827.59;4994508;28;46184;-82
2021/06/24 10:53:03;;;;;;;;;12.50;12.00;;;;;20.19;48.06;101823.97;4995738;28;45820;-81
2021/06/24 10:55:39;;;;;;;;;10.00;9.00;;;;;20.20;47.54;101825.75;4996318;28;45312;-84
2021/06/24 10:58:27;;;;;;;;;9.00;7.00;;;;;20.24;47.69;101806.56;4996184;28;45396;-81
2021/06/24 11:00:56;;;;;;;;;9.50;9.50;;;;;20.24;47.73;101808.31;4962854;28;47942;-79
2021/06/24 11:03:31;;;;;;;;;10.75;9.00;;;;;20.33;47.74;101810.22;5000765;28;45383;-87
2021/06/24 11:06:14;;;;;;;;;11.50;11.00;;;;;20.32;48.12;101801.47;4996892;28;45512;-81
2021/06/24 11:08:41;;;;;;;;;11.50;9.75;;;;;20.43;47.72;101806.94;5000206;28;45377;-80
2021/06/24 11:11:12;;;;;;;;;8.50;7.25;;;;;20.50;47.70;101800.97;4996669;27;46045;-82
2021/06/24 11:13:38;;;;;;;;;11.25;10.25;;;;;20.57;47.84;101800.22;4996688;28;45880;-86
2021/06/24 11:16:27;;;;;;;;;9.50;9.00;;;;;20.73;47.22;101793.50;4995660;27;45351;-81
2021/06/24 11:18:56;;;;;;;;;7.00;7.00;;;;;20.84;46.96;101796.34;4996349;27;45383;-86
2021/06/24 11:21:31;;;;;;;;;13.75;12.50;;;;;21.02;46.71;101794.91;4977859;28;47007;-91